Time;durP1;ratioP1;P1;durP2;ratioP2;P2;SDS_P1;SDS_P2;PMS_P1;PMS_P2;Temp;Humidity;BMP_temperature;BMP_pressure;BME280_temperature;BME280_humidity;BME280_pressure;Samples;Min_cycle;Max_cycle;Signal;HPM_P1;HPM_P2
2024/03/11 00:01:04;;;;;;;0.90;0.90;;;;;;;-1.21;69.54;102462.47;5084387;28;20217;-79
2024/03/11 00:03:33;;;;;;;1.93;0.93;;;;;;;-1.21;69.81;102460.78;5084359;28;20437;-79
2024/03/11 00:06:01;;;;;;;6.13;1.17;;;;;;;-1.21;69.07;102465.03;5084664;28;20508;-79
2024/03/11 00:08:28;;;;;;;1.63;1.20;;;;;;;-1.23;69.39;102463.28;5079991;28;20516;-81
2024/03/11 00:10:59;;;;;;;1.47;0.83;;;;;;;-1.26;69.50;102463.13;5084353;28;20483;-79
2024/03/11 00:13:32;;;;;;;1.00;0.90;;;;;;;-1.46;69.35;102430.34;5084811;28;20452;-79
2024/03/11 00:16:00;;;;;;;3.10;1.13;;;;;;;-1.29;69.31;102462.94;5081799;28;20447;-80
2024/03/11 00:18:28;;;;;;;2.13;0.90;;;;;;;-1.28;69.81;102457.03;5083195;28;20440;-80
2024/03/11 00:20:57;;;;;;;1.40;1.00;;;;;;;-1.31;69.23;102459.44;5083354;28;20449;-79
2024/03/11 00:23:26;;;;;;;0.93;0.93;;;;;;;-1.36;69.45;102448.03;5085811;28;20441;-79
2024/03/11 00:25:55;;;;;;;1.13;0.73;;;;;;;-1.41;69.59;102436.63;5089997;28;20420;-79
2024/03/11 00:28:29;;;;;;;0.83;0.83;;;;;;;-1.49;69.66;102427.63;5086644;28;20444;-80
2024/03/11 00:30:56;;;;;;;1.37;0.87;;;;;;;-1.37;69.43;102445.34;5080644;28;20440;-79
2024/03/11 00:33:24;;;;;;;1.00;0.90;;;;;;;-1.40;69.34;102452.91;5084001;28;20535;-80
2024/03/11 00:35:51;;;;;;;2.70;1.47;;;;;;;-1.40;69.83;102451.22;5082853;28;20496;-79
2024/03/11 00:38:18;;;;;;;1.40;1.17;;;;;;;-1.46;69.28;102449.22;5081749;28;20999;-80
2024/03/11 00:40:46;;;;;;;1.90;0.90;;;;;;;-1.52;69.08;102432.59;5080877;28;20514;-80
2024/03/11 00:43:12;;;;;;;3.07;1.23;;;;;;;-1.47;69.39;102446.56;5081510;28;20922;-80
2024/03/11 00:45:41;;;;;;;2.30;1.10;;;;;;;-1.62;69.60;102425.22;5085356;28;20931;-80
2024/03/11 00:48:11;;;;;;;1.17;0.97;;;;;;;-1.50;69.53;102446.41;5083741;28;20783;-79
2024/03/11 00:50:38;;;;;;;1.77;1.10;;;;;;;-1.53;69.21;102444.56;5081024;28;20458;-80
2024/03/11 00:53:07;;;;;;;1.80;1.10;;;;;;;-1.60;69.34;102423.59;5083849;28;20519;-80
2024/03/11 00:55:34;;;;;;;1.97;0.90;;;;;;;-1.56;69.35;102430.69;5084491;28;20512;-80
2024/03/11 00:58:02;;;;;;;1.37;1.17;;;;;;;-1.57;69.05;102429.81;5085144;28;20982;-80
2024/03/11 01:00:30;;;;;;;1.70;1.10;;;;;;;-1.63;69.07;102419.19;5088663;28;20556;-80
2024/03/11 01:03:01;;;;;;;1.80;1.20;;;;;;;-1.62;69.23;102425.22;5079814;28;20447;-80
2024/03/11 01:05:31;;;;;;;1.57;1.20;;;;;;;-1.64;69.36;102421.69;5078580;28;20452;-80
2024/03/11 01:07:58;;;;;;;1.30;0.90;;;;;;;-1.66;69.21;102421.59;5075086;28;20453;-82
2024/03/11 01:10:25;;;;;;;0.90;0.87;;;;;;;-1.66;69.23;102429.28;5083078;28;20436;-80
2024/03/11 01:12:52;;;;;;;1.60;1.40;;;;;;;-1.68;68.95;102420.66;5080769;28;20954;-79
2024/03/11 01:15:20;;;;;;;2.40;1.23;;;;;;;-1.73;68.88;102412.69;5081655;28;20453;-80
2024/03/11 01:17:47;;;;;;;1.73;1.10;;;;;;;-1.75;69.49;102415.97;5084482;28;20441;-80
2024/03/11 01:20:16;;;;;;;2.13;0.90;;;;;;;-1.74;69.45;102425.41;5085297;28;20482;-79
2024/03/11 01:22:44;;;;;;;1.50;1.10;;;;;;;-1.95;68.51;102384.09;5084626;28;20459;-80
2024/03/11 01:25:11;;;;;;;2.33;1.20;;;;;;;-1.80;69.74;102412.28;5083741;28;20534;-80
2024/03/11 01:27:39;;;;;;;0.77;0.77;;;;;;;-1.81;69.30;102410.50;5081312;28;20490;-79
2024/03/11 01:30:09;;;;;;;1.00;0.90;;;;;;;-1.90;69.09;102392.94;5081309;28;20506;-80
2024/03/11 01:32:38;;;;;;;3.90;1.30;;;;;;;-1.84;68.78;102408.66;5080063;28;20872;-81
2024/03/11 01:35:06;;;;;;;2.50;1.27;;;;;;;-1.85;69.32;102408.56;5082622;28;20884;-80
2024/03/11 01:37:36;;;;;;;1.97;1.13;;;;;;;-1.88;68.72;102405.84;5088476;28;20443;-80
2024/03/11 01:40:04;;;;;;;1.57;1.10;;;;;;;-1.91;69.23;102401.44;5083583;28;20580;-81
2024/03/11 01:42:31;;;;;;;1.37;1.20;;;;;;;-1.94;69.07;102407.28;5085997;28;20459;-81
2024/03/11 01:44:58;;;;;;;1.97;1.23;;;;;;;-1.94;69.37;102391.91;5080616;28;20512;-80
2024/03/11 01:47:27;;;;;;;2.67;1.20;;;;;;;-1.95;69.04;102395.25;5086234;28;20997;-80
2024/03/11 01:49:59;;;;;;;2.97;1.17;;;;;;;-1.97;69.22;102391.72;5082405;28;20444;-80
2024/03/11 01:52:30;;;;;;;2.43;1.20;;;;;;;-2.13;68.75;102366.91;5085750;28;20446;-80
2024/03/11 01:55:00;;;;;;;2.27;1.53;;;;;;;-2.03;69.41;102381.13;5081408;28;20459;-79
2024/03/11 01:57:28;;;;;;;3.07;1.20;;;;;;;-2.03;69.37;102381.13;5081960;28;20436;-80
2024/03/11 01:59:55;;;;;;;1.20;1.10;;;;;;;-2.14;69.12;102367.72;5087979;28;20566;-80
2024/03/11 02:02:23;;;;;;;1.40;1.00;;;;;;;-2.04;68.96;102389.63;5079465;28;20919;-80
2024/03/11 02:04:51;;;;;;;3.30;1.17;;;;;;;-2.27;68.66;102349.91;5080772;28;20460;-79
2024/03/11 02:07:19;;;;;;;2.93;1.43;;;;;;;-2.08;69.77;102385.13;5079932;28;20562;-79
2024/03/11 02:09:47;;;;;;;2.20;1.50;;;;;;;-2.09;69.24;102385.91;5083882;28;20464;-79
2024/03/11 02:12:18;;;;;;;3.00;1.40;;;;;;;-2.10;69.30;102383.28;5079918;28;20437;-80
2024/03/11 02:14:45;;;;;;;2.03;1.50;;;;;;;-2.18;69.48;102370.03;5085351;28;20440;-80
2024/03/11 02:17:14;;;;;;;1.97;1.50;;;;;;;-2.15;69.71;102373.63;5083475;28;20471;-79
2024/03/11 02:19:41;;;;;;;3.80;1.50;;;;;;;-2.22;69.05;102363.88;5086951;28;20468;-79
2024/03/11 02:22:09;;;;;;;3.07;1.33;;;;;;;-2.18;69.45;102370.03;5087416;28;20453;-78
2024/03/11 02:24:37;;;;;;;2.03;1.57;;;;;;;-2.33;69.26;102352.13;5085231;28;20440;-80
2024/03/11 02:27:05;;;;;;;2.73;1.60;;;;;;;-2.22;69.56;102371.56;5090232;28;20444;-79
2024/03/11 02:29:35;;;;;;;2.60;1.37;;;;;;;-2.26;69.29;102367.03;5088504;28;20431;-80
2024/03/11 02:32:04;;;;;;;2.87;1.60;;;;;;;-2.23;69.04;102376.59;5085694;28;20564;-80
2024/03/11 02:34:31;;;;;;;1.80;1.10;;;;;;;-2.24;69.65;102365.44;5086781;28;20440;-80
2024/03/11 02:37:00;;;;;;;4.27;1.50;;;;;;;-2.33;69.68;102354.69;5089489;28;20444;-79
2024/03/11 02:39:27;;;;;;;1.87;1.50;;;;;;;-2.26;69.29;102367.03;5080803;28;20544;-80
2024/03/11 02:41:56;;;;;;;1.37;1.07;;;;;;;-2.28;69.48;102360.97;5086643;28;20478;-82
2024/03/11 02:44:23;;;;;;;2.77;1.33;;;;;;;-2.32;69.76;102361.56;5081302;28;20524;-81
2024/03/11 02:46:50;;;;;;;2.43;1.57;;;;;;;-2.32;69.28;102366.69;5086418;28;20448;-80
2024/03/11 02:49:18;;;;;;;4.17;1.50;;;;;;;-2.33;69.49;102352.13;5085068;28;20817;-79
2024/03/11 02:51:45;;;;;;;1.77;1.30;;;;;;;-2.46;69.15;102339.41;5091070;28;20448;-80
2024/03/11 02:54:14;;;;;;;2.30;1.50;;;;;;;-2.41;69.44;102350.81;5086495;28;20445;-80
2024/03/11 02:56:41;;;;;;;2.17;1.50;;;;;;;-2.37;69.47;102361.34;5082043;28;20459;-80
2024/03/11 02:59:09;;;;;;;1.70;1.40;;;;;;;-2.45;69.53;102342.09;5089940;28;20455;-80
2024/03/11 03:01:38;;;;;;;2.27;1.33;;;;;;;-2.39;69.17;102359.50;5082102;28;20482;-81
2024/03/11 03:04:05;;;;;;;2.30;1.40;;;;;;;-2.44;69.13;102348.97;5087137;28;20844;-80
2024/03/11 03:06:33;;;;;;;3.50;1.47;;;;;;;-2.56;69.44;102330.34;5083651;28;20480;-81
2024/03/11 03:09:00;;;;;;;1.37;1.10;;;;;;;-2.44;69.79;102355.78;5081298;28;20432;-80
2024/03/11 03:11:27;;;;;;;1.50;1.23;;;;;;;-2.46;69.29;102357.38;5084647;28;20539;-81
2024/03/11 03:13:54;;;;;;;1.30;1.20;;;;;;;-2.45;69.98;102365.16;5089399;28;20993;-80
2024/03/11 03:16:23;;;;;;;3.10;1.30;;;;;;;-2.47;69.38;102358.19;5084664;28;20905;-80
2024/03/11 03:18:50;;;;;;;2.90;1.50;;;;;;;-2.47;69.37;102360.75;5088627;28;20445;-80
2024/03/11 03:21:17;;;;;;;2.50;1.60;;;;;;;-2.52;69.54;102349.34;5088029;28;20579;-80
2024/03/11 03:23:44;;;;;;;2.53;1.53;;;;;;;-2.52;69.84;102352.78;5077162;28;20476;-80
2024/03/11 03:26:11;;;;;;;3.60;1.60;;;;;;;-2.51;69.56;102354.53;5086307;28;20437;-79
2024/03/11 03:28:38;;;;;;;3.07;1.23;;;;;;;-2.53;69.59;102350.16;5085100;28;20485;-81
2024/03/11 03:31:06;;;;;;;2.27;1.70;;;;;;;-2.66;69.40;102326.38;5076943;28;20543;-79
2024/03/11 03:33:34;;;;;;;2.83;1.90;;;;;;;-2.54;69.64;102348.38;5083318;28;20441;-81
2024/03/11 03:36:02;;;;;;;2.00;1.33;;;;;;;-2.53;69.71;102352.72;5084410;28;20453;-81
2024/03/11 03:38:30;;;;;;;3.40;1.50;;;;;;;-2.55;69.91;102341.47;5080841;28;20427;-79
2024/03/11 03:40:59;;;;;;;3.53;1.30;;;;;;;-2.60;69.86;102344.66;5085612;28;20490;-80
2024/03/11 03:43:26;;;;;;;3.83;1.53;;;;;;;-2.64;69.61;102336.72;5090877;28;20534;-79
2024/03/11 03:45:53;;;;;;;2.80;1.50;;;;;;;-2.62;69.79;102345.41;5093347;28;20494;-79
2024/03/11 03:48:21;;;;;;;3.03;1.70;;;;;;;-2.58;69.54;102347.31;5085763;28;20439;-80
2024/03/11 03:50:50;;;;;;;4.63;1.80;;;;;;;-2.61;69.55;102345.47;5082410;28;20436;-80
2024/03/11 03:53:18;;;;;;;3.57;1.40;;;;;;;-2.63;69.85;102334.22;5093158;28;20432;-79
2024/03/11 03:55:45;;;;;;;2.13;1.50;;;;;;;-2.60;69.84;102349.78;5078922;28;20452;-80
2024/03/11 03:58:12;;;;;;;2.30;1.37;;;;;;;-2.63;69.97;102335.91;5083121;28;20532;-81
2024/03/11 04:00:39;;;;;;;2.50;1.50;;;;;;;-2.60;69.78;102344.66;5083961;28;20491;-80
2024/03/11 04:03:07;;;;;;;3.47;1.57;;;;;;;-2.62;70.04;102341.16;5082838;28;20450;-82
2024/03/11 04:05:34;;;;;;;3.43;1.63;;;;;;;-2.62;70.01;102346.28;5083409;28;20499;-80
2024/03/11 04:08:03;;;;;;;3.63;1.57;;;;;;;-2.61;69.52;102345.47;5086080;28;20448;-80
2024/03/11 04:10:30;;;;;;;2.23;1.20;;;;;;;-2.61;70.07;102347.16;5083953;28;20445;-80
2024/03/11 04:12:58;;;;;;;2.63;1.50;;;;;;;-2.71;69.56;102332.03;5086724;28;20518;-80
2024/03/11 04:15:25;;;;;;;2.77;1.50;;;;;;;-2.63;69.80;102334.22;5076365;28;20902;-80
2024/03/11 04:17:54;;;;;;;2.47;1.53;;;;;;;-2.65;69.97;102325.59;5088731;28;20459;-80
2024/03/11 04:20:27;;;;;;;3.43;1.57;;;;;;;-2.63;69.73;102331.66;5081197;28;20897;-80
2024/03/11 04:22:55;;;;;;;4.53;1.70;;;;;;;-2.64;69.99;102337.59;5082795;28;20499;-79
2024/03/11 04:25:27;;;;;;;1.70;1.30;;;;;;;-2.65;70.03;102324.69;5078301;28;20451;-80
2024/03/11 04:27:55;;;;;;;5.43;1.27;;;;;;;-2.64;70.42;102326.47;5087881;28;20447;-79
2024/03/11 04:30:29;;;;;;;2.00;1.43;;;;;;;-2.66;69.83;102326.38;5079250;28;20961;-80
2024/03/11 04:32:57;;;;;;;3.07;1.67;;;;;;;-2.66;70.13;102323.81;5085245;28;20531;-79
2024/03/11 04:35:26;;;;;;;3.17;1.47;;;;;;;-2.68;70.15;102320.31;5086412;28;20785;-79
2024/03/11 04:37:54;;;;;;;2.00;1.50;;;;;;;-2.71;69.99;102314.97;5086093;28;20994;-79
2024/03/11 04:40:21;;;;;;;3.13;1.57;;;;;;;-2.67;70.03;102316.06;5082124;28;20467;-79
2024/03/11 04:42:49;;;;;;;1.83;1.40;;;;;;;-2.70;70.06;102316.78;5083774;28;20957;-80
2024/03/11 04:45:17;;;;;;;2.27;1.27;;;;;;;-2.69;70.29;102323.66;5086797;28;20443;-80
2024/03/11 04:47:44;;;;;;;2.83;1.57;;;;;;;-2.69;70.07;102323.66;5084773;28;20440;-80
2024/03/11 04:50:12;;;;;;;2.60;1.53;;;;;;;-2.75;70.22;102309.63;5087682;28;20429;-79
2024/03/11 04:52:40;;;;;;;2.03;1.30;;;;;;;-2.70;70.77;102323.56;5085082;28;20457;-81
2024/03/11 04:55:08;;;;;;;1.97;1.23;;;;;;;-2.78;70.15;102307.75;5078437;28;20475;-80
2024/03/11 04:57:35;;;;;;;4.23;1.60;;;;;;;-2.70;70.20;102324.44;5085977;28;20446;-80
2024/03/11 05:00:08;;;;;;;4.47;1.27;;;;;;;-2.77;70.09;102304.41;5081736;28;21025;-81
2024/03/11 05:02:38;;;;;;;1.83;1.43;;;;;;;-2.75;70.10;102318.19;5080674;28;20443;-81
2024/03/11 05:05:07;;;;;;;3.00;1.47;;;;;;;-2.77;70.66;102309.53;5083771;28;20447;-80
2024/03/11 05:07:34;;;;;;;4.10;1.83;;;;;;;-2.71;70.58;102316.66;5083436;28;20539;-80
2024/03/11 05:10:02;;;;;;;2.07;1.23;;;;;;;-2.72;69.99;102312.34;5091263;28;20466;-81
2024/03/11 05:12:29;;;;;;;2.03;1.20;;;;;;;-2.72;69.79;102310.66;5083716;28;20452;-80
2024/03/11 05:14:59;;;;;;;1.60;1.40;;;;;;;-2.72;70.25;102307.22;5085177;28;20502;-81
2024/03/11 05:17:30;;;;;;;2.77;1.40;;;;;;;-2.79;70.08;102295.75;5084630;28;20452;-80
2024/03/11 05:19:58;;;;;;;4.37;1.67;;;;;;;-2.73;70.45;102311.47;5084601;28;20522;-80
2024/03/11 05:22:25;;;;;;;2.90;1.57;;;;;;;-2.78;70.59;102302.66;5088664;28;21089;-81
2024/03/11 05:24:52;;;;;;;2.03;1.43;;;;;;;-2.75;70.41;102307.94;5085946;28;20454;-81
2024/03/11 05:27:20;;;;;;;2.00;1.17;;;;;;;-2.76;70.83;102311.31;5083498;28;20455;-80
2024/03/11 05:29:48;;;;;;;3.50;1.83;;;;;;;-2.73;70.39;102308.91;5081595;28;20456;-79
2024/03/11 05:32:15;;;;;;;1.73;1.40;;;;;;;-2.74;70.26;102309.69;5087354;28;20462;-80
2024/03/11 05:34:43;;;;;;;1.50;1.20;;;;;;;-2.74;70.38;102306.25;5080135;28;20435;-80
2024/03/11 05:37:11;;;;;;;2.20;1.60;;;;;;;-2.74;70.55;102312.25;5089240;28;20454;-80
2024/03/11 05:39:38;;;;;;;2.77;1.60;;;;;;;-2.75;70.49;102309.63;5082983;28;20431;-79
2024/03/11 05:42:08;;;;;;;3.30;1.47;;;;;;;-2.74;70.25;102316.50;5086342;28;20993;-80
2024/03/11 05:44:35;;;;;;;1.70;1.30;;;;;;;-2.74;70.25;102321.63;5091256;28;20477;-79
2024/03/11 05:47:02;;;;;;;2.73;1.40;;;;;;;-2.74;70.31;102319.94;5090722;28;20489;-79
2024/03/11 05:49:32;;;;;;;1.70;1.43;;;;;;;-2.88;70.23;102295.22;5083407;28;20526;-80
2024/03/11 05:52:02;;;;;;;2.47;1.77;;;;;;;-2.76;70.12;102311.31;5085054;28;20447;-80
2024/03/11 05:54:29;;;;;;;2.27;1.57;;;;;;;-2.78;70.65;102320.56;5082464;28;20462;-80
2024/03/11 05:56:57;;;;;;;3.10;1.60;;;;;;;-2.81;70.26;102313.59;5080983;28;20434;-80
2024/03/11 05:59:25;;;;;;;2.23;1.47;;;;;;;-2.76;70.37;102316.44;5085839;28;20444;-81
2024/03/11 06:01:52;;;;;;;3.00;1.37;;;;;;;-2.77;70.52;102322.31;5087726;28;20513;-79
2024/03/11 06:04:20;;;;;;;3.37;1.37;;;;;;;-2.79;70.42;102312.78;5087029;28;20451;-79
2024/03/11 06:06:51;;;;;;;2.20;1.50;;;;;;;-2.77;70.46;102318.88;5084051;28;20572;-79
2024/03/11 06:09:19;;;;;;;2.23;1.50;;;;;;;-2.84;70.78;102298.06;5082163;28;20819;-80
2024/03/11 06:11:49;;;;;;;2.33;1.57;;;;;;;-2.80;70.70;102304.22;5084378;28;20471;-79
2024/03/11 06:14:18;;;;;;;2.43;1.40;;;;;;;-2.78;70.54;102307.75;5088567;28;20480;-79
2024/03/11 06:16:47;;;;;;;2.83;1.80;;;;;;;-2.76;70.73;102301.06;5086310;28;20447;-80
2024/03/11 06:19:16;;;;;;;2.60;1.63;;;;;;;-2.76;70.64;102308.75;5085564;28;20543;-79
2024/03/11 06:21:43;;;;;;;2.37;1.60;;;;;;;-2.75;71.16;102310.50;5084478;28;20478;-79
2024/03/11 06:24:10;;;;;;;2.83;1.73;;;;;;;-2.71;70.93;102308.97;5088438;28;20957;-79
2024/03/11 06:26:39;;;;;;;2.80;2.10;;;;;;;-2.70;70.98;102306.53;5084746;28;20438;-80
2024/03/11 06:29:07;;;;;;;3.43;1.83;;;;;;;-2.69;71.05;102308.28;5085826;28;20923;-80
2024/03/11 06:31:37;;;;;;;3.20;2.07;;;;;;;-2.66;71.30;102313.56;5084546;28;20452;-79
2024/03/11 06:34:06;;;;;;;3.17;1.70;;;;;;;-2.65;71.15;102305.09;5084380;28;20466;-79
2024/03/11 06:36:33;;;;;;;3.57;1.77;;;;;;;-2.62;71.36;102305.28;5084786;28;20796;-79
2024/03/11 06:39:00;;;;;;;4.13;1.90;;;;;;;-2.54;71.23;102320.16;5086399;28;20444;-79
2024/03/11 06:41:27;;;;;;;2.60;1.87;;;;;;;-2.50;72.01;102312.75;5088779;28;20501;-78
2024/03/11 06:43:56;;;;;;;3.87;2.00;;;;;;;-2.48;71.34;102311.16;5079553;28;20517;-78
2024/03/11 06:46:23;;;;;;;2.33;1.53;;;;;;;-2.42;71.70;102310.63;5088104;28;20427;-79
2024/03/11 06:48:50;;;;;;;3.57;2.00;;;;;;;-2.36;72.34;102314.38;5083372;28;21019;-79
2024/03/11 06:51:17;;;;;;;2.23;1.50;;;;;;;-2.31;71.63;102309.53;5086956;28;20466;-79
2024/03/11 06:53:44;;;;;;;3.43;2.03;;;;;;;-2.27;71.82;102311.44;5088404;28;20455;-78
2024/03/11 06:56:12;;;;;;;4.03;2.03;;;;;;;-2.20;72.24;102310.97;5084665;28;20435;-77
2024/03/11 06:58:39;;;;;;;5.00;2.10;;;;;;;-2.14;72.05;102313.88;5082589;28;20969;-79
2024/03/11 07:01:10;;;;;;;2.80;1.40;;;;;;;-2.19;71.92;102291.34;5083913;28;20479;-76
2024/03/11 07:03:37;;;;;;;5.47;1.60;;;;;;;-2.03;72.40;102311.00;5082957;28;20526;-76
2024/03/11 07:06:04;;;;;;;2.50;1.60;;;;;;;-2.08;71.95;102295.38;5087702;28;21063;-77
2024/03/11 07:08:33;;;;;;;3.23;1.90;;;;;;;-1.93;72.04;102305.56;5082617;28;20448;-81
2024/03/11 07:11:01;;;;;;;5.03;2.13;;;;;;;-1.92;72.20;102297.06;5083629;28;20445;-80
2024/03/11 07:13:31;;;;;;;3.43;1.90;;;;;;;-1.84;72.10;102305.16;5084933;28;20949;-81
2024/03/11 07:15:58;;;;;;;6.13;2.33;;;;;;;-1.76;72.07;102306.44;5090359;28;20440;-79
2024/03/11 07:18:27;;;;;;;3.83;1.80;;;;;;;-1.72;71.93;102306.66;5087562;28;20485;-81
2024/03/11 07:20:57;;;;;;;4.60;1.70;;;;;;;-1.67;72.20;102294.09;5090846;28;20441;-83
2024/03/11 07:23:28;;;;;;;3.50;1.97;;;;;;;-1.71;72.39;102284.50;5084970;28;20453;-80
2024/03/11 07:25:58;;;;;;;4.77;2.03;;;;;;;-1.63;72.44;102295.13;5088576;28;20459;-81
2024/03/11 07:28:26;;;;;;;3.40;1.93;;;;;;;-1.46;71.86;102308.03;5089713;28;20440;-83
2024/03/11 07:30:53;;;;;;;3.70;2.00;;;;;;;-1.53;72.78;102284.53;5091024;28;20829;-82
2024/03/11 07:33:20;;;;;;;3.70;1.83;;;;;;;-1.29;72.86;102308.88;5079459;28;20947;-81
2024/03/11 07:35:51;;;;;;;6.10;2.10;;;;;;;-1.24;72.72;102297.13;5089590;28;20451;-81
2024/03/11 07:38:19;;;;;;;4.13;1.90;;;;;;;-1.06;72.70;102306.56;5084348;28;20919;-82
2024/03/11 07:40:46;;;;;;;4.73;2.10;;;;;;;-0.93;72.86;102308.94;5084328;28;20438;-81
2024/03/11 07:43:15;;;;;;;3.83;1.87;;;;;;;-0.80;73.26;102313.88;5083051;28;21157;-81
2024/03/11 07:45:42;;;;;;;5.33;1.87;;;;;;;-0.75;73.30;102297.78;5086485;28;20449;-82
2024/03/11 07:48:12;;;;;;;4.00;1.83;;;;;;;-0.52;73.19;102302.31;5088165;28;20515;-82
2024/03/11 07:50:39;;;;;;;3.03;1.63;;;;;;;-0.34;72.70;102310.91;5081875;28;20444;-81
2024/03/11 07:53:08;;;;;;;2.13;1.60;;;;;;;-0.22;72.96;102317.44;5086412;28;20440;-80
2024/03/11 07:55:36;;;;;;;4.63;1.53;;;;;;;-0.11;72.78;102311.09;5083650;28;20535;-80
2024/03/11 07:58:03;;;;;;;2.50;1.50;;;;;;;0.02;72.71;102310.81;5085574;28;20424;-80
2024/03/11 08:00:31;;;;;;;2.47;1.70;;;;;;;0.15;72.89;102311.41;5080358;28;20457;-82
2024/03/11 08:02:59;;;;;;;3.33;1.73;;;;;;;0.25;73.18;102310.97;5085251;28;20476;-80
2024/03/11 08:05:27;;;;;;;4.23;1.80;;;;;;;0.41;72.70;102305.69;5081371;28;20449;-80
2024/03/11 08:07:55;;;;;;;2.17;1.67;;;;;;;0.53;72.76;102298.47;5082466;28;20434;-81
2024/03/11 08:10:25;;;;;;;2.13;1.57;;;;;;;0.68;72.71;102303.44;5081288;28;20743;-82
2024/03/11 08:12:53;;;;;;;5.23;1.70;;;;;;;0.82;72.61;102303.97;5085195;28;20428;-80
2024/03/11 08:15:20;;;;;;;2.97;2.27;;;;;;;0.92;72.50;102300.97;5083511;28;20535;-81
2024/03/11 08:17:50;;;;;;;1.57;1.43;;;;;;;1.09;72.40;102312.00;5083814;28;20931;-80
2024/03/11 08:20:20;;;;;;;6.10;2.47;;;;;;;1.22;72.57;102311.69;5086390;28;20959;-80
2024/03/11 08:22:48;;;;;;;5.83;1.87;;;;;;;1.35;72.00;102310.47;5088484;28;20496;-81
2024/03/11 08:25:17;;;;;;;2.97;1.60;;;;;;;1.48;72.14;102312.72;5089858;28;20459;-77
2024/03/11 08:27:46;;;;;;;5.87;1.80;;;;;;;1.59;72.22;102307.97;5081569;28;20578;-75
2024/03/11 08:30:15;;;;;;;3.03;1.60;;;;;;;1.70;71.68;102304.13;5086368;28;20441;-78
2024/03/11 08:32:42;;;;;;;3.30;1.97;;;;;;;1.86;71.45;102305.56;5085855;28;20520;-78
2024/03/11 08:35:10;;;;;;;3.97;1.70;;;;;;;1.93;71.67;102297.22;5084997;28;20969;-76
2024/03/11 08:37:37;;;;;;;2.07;1.50;;;;;;;2.04;71.19;102302.78;5085387;28;20440;-77
2024/03/11 08:40:08;;;;;;;2.87;1.67;;;;;;;2.20;70.90;102314.56;5081582;28;20457;-78
2024/03/11 08:42:36;;;;;;;4.17;1.30;;;;;;;2.29;70.69;102319.16;5084263;28;20496;-75
2024/03/11 08:45:06;;;;;;;3.10;1.53;;;;;;;2.26;70.62;102307.03;5082693;28;20446;-80
2024/03/11 08:47:33;;;;;;;2.90;1.40;;;;;;;2.38;70.70;102310.03;5079076;28;20445;-80
2024/03/11 08:50:02;;;;;;;3.63;1.70;;;;;;;2.46;69.77;102310.31;5085057;28;20453;-79
2024/03/11 08:52:29;;;;;;;1.53;1.20;;;;;;;2.59;69.63;102321.97;5091435;28;20424;-77
2024/03/11 08:54:56;;;;;;;4.37;1.63;;;;;;;2.65;69.21;102323.91;5082551;28;20815;-80
2024/03/11 08:57:23;;;;;;;2.80;1.40;;;;;;;2.62;68.92;102309.16;5078033;28;20526;-77
2024/03/11 08:59:50;;;;;;;3.87;1.50;;;;;;;2.67;68.85;102320.53;5078986;28;20458;-78
2024/03/11 09:02:20;;;;;;;3.17;1.63;;;;;;;2.74;67.56;102327.66;5078613;28;20992;-78
2024/03/11 09:04:47;;;;;;;3.77;1.53;;;;;;;2.62;67.47;102306.56;5085884;28;20454;-76
2024/03/11 09:07:15;;;;;;;3.03;1.40;;;;;;;2.67;67.30;102319.63;5074163;28;20471;-74
2024/03/11 09:09:42;;;;;;;2.23;1.40;;;;;;;2.74;66.75;102327.66;5078518;28;20443;-76
2024/03/11 09:12:11;;;;;;;2.67;1.40;;;;;;;2.60;66.11;102310.81;5084121;28;20517;-76
2024/03/11 09:14:38;;;;;;;3.57;1.57;;;;;;;2.71;65.92;102330.16;5084041;28;20978;-80
2024/03/11 09:17:05;;;;;;;1.43;1.27;;;;;;;2.67;65.86;102325.72;5080302;28;20514;-79
2024/03/11 09:19:33;;;;;;;2.87;1.70;;;;;;;2.75;65.81;102338.88;5080181;28;20478;-79
2024/03/11 09:22:02;;;;;;;3.63;1.67;;;;;;;2.75;65.27;102332.00;5073974;28;20489;-78
2024/03/11 09:24:29;;;;;;;1.73;1.33;;;;;;;2.76;65.58;102330.31;5083499;28;20444;-81
2024/03/11 09:26:56;;;;;;;3.50;1.50;;;;;;;2.76;64.95;102331.19;5082775;28;20498;-80
2024/03/11 09:29:24;;;;;;;1.90;1.50;;;;;;;2.77;64.90;102338.09;5083635;28;20503;-81
2024/03/11 09:31:51;;;;;;;3.07;1.57;;;;;;;2.76;63.75;102338.06;5083904;28;20443;-79
2024/03/11 09:34:20;;;;;;;3.77;1.47;;;;;;;2.73;63.55;102331.09;5085775;28;20450;-81
2024/03/11 09:36:48;;;;;;;2.73;1.50;;;;;;;2.69;63.40;102329.19;5088597;28;20935;-80
2024/03/11 09:39:18;;;;;;;3.27;1.67;;;;;;;2.71;63.55;102330.16;5088686;28;20453;-84
2024/03/11 09:41:48;;;;;;;2.63;1.37;;;;;;;2.62;63.29;102309.16;5090590;28;20447;-85
2024/03/11 09:44:17;;;;;;;1.37;1.13;;;;;;;2.75;63.36;102334.56;5086069;28;20534;-87
2024/03/11 09:46:46;;;;;;;2.70;1.50;;;;;;;2.80;62.67;102332.16;5090783;28;20540;-83
2024/03/11 09:49:15;;;;;;;2.73;1.30;;;;;;;2.89;62.89;102327.28;5089813;28;20437;-84
2024/03/11 09:51:45;;;;;;;2.43;1.30;;;;;;;2.92;62.27;102319.63;5086556;28;20437;-85
2024/03/11 09:54:14;;;;;;;1.93;1.50;;;;;;;3.08;62.17;102331.38;5090014;28;20433;-83
2024/03/11 09:56:42;;;;;;;2.43;1.30;;;;;;;3.08;62.27;102330.50;5089496;28;20476;-82
2024/03/11 09:59:10;;;;;;;2.70;1.50;;;;;;;3.11;62.20;102333.19;5083545;28;21011;-83
2024/03/11 10:01:44;;;;;;;3.07;1.70;;;;;;;3.11;61.81;102328.91;5088241;28;20913;-83
2024/03/11 10:04:12;;;;;;;2.47;1.40;;;;;;;3.10;62.01;102326.25;5085346;28;20446;-79
2024/03/11 10:06:40;;;;;;;2.07;1.30;;;;;;;3.14;62.38;102318.66;5090325;28;21099;-83
2024/03/11 10:09:18;;;;;;;4.93;1.23;;;;;;;3.19;62.34;102327.44;5085944;28;20446;-82
2024/03/11 10:12:00;;;;;;;2.43;1.37;;;;;;;3.22;62.81;102324.09;5081094;28;20454;-83
2024/03/11 10:14:28;;;;;;;3.37;1.60;;;;;;;3.23;61.62;102323.25;5093280;28;20438;-81
2024/03/11 10:16:55;;;;;;;2.50;1.60;;;;;;;3.26;61.87;102328.50;5092078;28;20450;-83
2024/03/11 10:19:23;;;;;;;3.30;1.97;;;;;;;3.25;60.99;102329.34;5091691;28;20441;-82
2024/03/11 10:22:02;;;;;;;4.67;1.90;;;;;;;3.21;60.21;102320.63;5081396;28;20456;-81
2024/03/11 10:24:30;;;;;;;2.80;1.40;;;;;;;3.14;60.20;102318.66;5089375;28;20434;-81
2024/03/11 10:26:59;;;;;;;4.23;2.73;;;;;;;3.06;60.79;102310.63;5090289;28;20531;-84
2024/03/11 10:29:32;;;;;;;3.60;1.63;;;;;;;3.05;60.91;102300.25;5081754;28;20990;-85
2024/03/11 10:32:00;;;;;;;3.47;1.80;;;;;;;3.11;61.12;102313.38;5085276;28;20859;-82
2024/03/11 10:34:29;;;;;;;3.03;1.40;;;;;;;3.12;61.13;102309.97;5093475;28;20965;-82
2024/03/11 10:36:57;;;;;;;2.53;1.20;;;;;;;3.12;61.19;102309.97;5088530;28;20539;-82
2024/03/11 10:39:30;;;;;;;4.53;1.67;;;;;;;3.13;61.52;102308.28;5082124;28;20458;-79
2024/03/11 10:42:01;;;;;;;2.67;1.50;;;;;;;3.12;61.53;102304.78;5085484;28;20493;-78
2024/03/11 10:44:30;;;;;;;5.67;1.80;;;;;;;3.02;61.39;102279.47;5087269;28;20804;-79
2024/03/11 10:47:14;;;;;;;3.33;1.87;;;;;;;2.99;61.20;102279.38;5087638;28;20922;-78
2024/03/11 10:49:43;;;;;;;6.37;2.43;;;;;;;2.95;60.14;102282.66;5085172;28;20448;-78
2024/03/11 10:52:16;;;;;;;4.10;2.00;;;;;;;2.94;60.42;102293.84;5080069;28;20522;-79
2024/03/11 10:54:47;;;;;;;3.40;1.73;;;;;;;2.99;60.04;102305.22;5082050;28;20456;-79
2024/03/11 10:57:26;;;;;;;3.97;1.87;;;;;;;2.82;59.95;102282.28;5086730;28;20531;-75
2024/03/11 10:59:56;;;;;;;3.63;1.70;;;;;;;2.88;60.23;102298.81;5086546;28;20446;-83
2024/03/11 11:02:23;;;;;;;3.27;1.90;;;;;;;2.80;60.69;102298.56;5087108;28;20512;-81
2024/03/11 11:04:53;;;;;;;3.47;1.87;;;;;;;2.69;60.33;102280.09;5090713;28;20445;-80
2024/03/11 11:07:30;;;;;;;3.87;2.20;;;;;;;2.74;60.57;102301.81;5087261;28;20473;-78
2024/03/11 11:10:01;;;;;;;5.33;1.63;;;;;;;2.79;60.80;102295.09;5083867;28;20451;-82
2024/03/11 11:12:30;;;;;;;3.30;1.70;;;;;;;2.74;60.89;102291.47;5083015;28;20439;-81
2024/03/11 11:15:00;;;;;;;2.57;1.70;;;;;;;2.72;61.06;102290.53;5080118;28;20449;-79
2024/03/11 11:17:29;;;;;;;4.37;1.80;;;;;;;2.76;61.02;102297.59;5082123;28;20808;-80
2024/03/11 11:19:58;;;;;;;3.60;2.33;;;;;;;2.74;60.20;102296.66;5092575;28;20467;-81
2024/03/11 11:22:27;;;;;;;2.23;1.67;;;;;;;2.50;60.64;102255.34;5080308;28;20537;-81
2024/03/11 11:24:54;;;;;;;4.40;1.70;;;;;;;2.60;60.92;102278.09;5096148;28;20525;-88
2024/03/11 11:27:27;;;;;;;1.70;1.60;;;;;;;2.71;60.72;102293.09;5080937;28;20449;-79
2024/03/11 11:30:13;;;;;;;4.17;1.77;;;;;;;2.55;60.76;102258.94;5092529;28;20494;-78
2024/03/11 11:32:42;;;;;;;5.10;1.73;;;;;;;2.66;60.40;102298.09;5080186;28;20472;-76